Time;durP1;ratioP1;P1;durP2;ratioP2;P2;SDS_P1;SDS_P2;PMS_P1;PMS_P2;Temp;Humidity;BMP_temperature;BMP_pressure;BME280_temperature;BME280_humidity;BME280_pressure;Samples;Min_cycle;Max_cycle;Signal;HPM_P1;HPM_P2
2022/03/03 00:01:39;;;;;;;11.07;9.32;;;;;;;1.33;59.58;101373.03;5032390;27;20047;-70
2022/03/03 00:04:04;;;;;;;10.45;9.40;;;;;;;1.27;60.23;101370.69;5018154;27;20013;-70
2022/03/03 00:06:30;;;;;;;12.85;9.85;;;;;;;1.27;60.80;101368.09;4996803;27;20037;-72
2022/03/03 00:08:55;;;;;;;10.90;9.70;;;;;;;1.18;61.08;101379.75;5013120;27;20072;-70
2022/03/03 00:11:21;;;;;;;11.50;10.20;;;;;;;1.08;61.97;101377.53;5049265;27;20009;-72
2022/03/03 00:13:49;;;;;;;12.30;10.02;;;;;;;1.06;62.83;101379.34;5037895;27;20024;-72
2022/03/03 00:16:14;;;;;;;12.38;9.82;;;;;;;1.01;63.61;101380.38;5036626;27;20160;-71
2022/03/03 00:18:40;;;;;;;11.07;9.90;;;;;;;0.94;63.82;101378.06;5038427;27;20025;-72
2022/03/03 00:21:05;;;;;;;11.30;10.10;;;;;;;0.97;63.56;101376.22;5023114;27;20055;-70
2022/03/03 00:23:31;;;;;;;11.60;9.95;;;;;;;1.01;63.53;101375.16;5034310;27;20436;-70
2022/03/03 00:25:56;;;;;;;12.05;9.85;;;;;;;0.93;63.17;101364.22;5000599;27;20009;-71
2022/03/03 00:28:21;;;;;;;11.45;10.20;;;;;;;0.97;63.78;101370.13;5024999;27;20047;-71
2022/03/03 00:30:47;;;;;;;11.50;9.80;;;;;;;0.89;64.07;101373.06;5035047;27;20036;-71
2022/03/03 00:33:12;;;;;;;10.95;9.75;;;;;;;0.87;64.64;101374.00;5040220;27;20198;-70
2022/03/03 00:35:38;;;;;;;11.10;9.85;;;;;;;0.85;64.83;101361.03;5033020;27;20020;-71
2022/03/03 00:38:03;;;;;;;12.05;9.63;;;;;;;0.75;64.97;101359.66;5025526;27;20048;-69
2022/03/03 00:40:28;;;;;;;11.88;9.70;;;;;;;0.66;65.52;101366.97;5017910;27;20001;-71
2022/03/03 00:42:54;;;;;;;15.32;9.43;;;;;;;0.68;65.41;101369.50;5017415;27;20196;-70
2022/03/03 00:45:19;;;;;;;10.93;9.82;;;;;;;0.73;65.23;101359.75;5036019;27;20013;-70
2022/03/03 00:47:44;;;;;;;12.50;9.70;;;;;;;0.72;65.48;101357.19;5035976;27;20017;-70
2022/03/03 00:50:10;;;;;;;11.93;9.80;;;;;;;0.76;64.92;101357.03;5014714;27;20027;-71
2022/03/03 00:52:35;;;;;;;13.30;10.00;;;;;;;0.71;64.34;101356.34;5033422;27;20459;-72
2022/03/03 00:55:01;;;;;;;13.07;9.75;;;;;;;0.68;63.78;101362.53;5015926;27;20005;-72
2022/03/03 00:57:26;;;;;;;11.73;10.52;;;;;;;0.68;63.58;101365.13;5014984;28;20040;-70
2022/03/03 00:59:52;;;;;;;13.85;10.63;;;;;;;0.63;63.66;101354.03;5034896;27;20017;-70
2022/03/03 01:02:17;;;;;;;12.13;10.43;;;;;;;0.64;63.84;101355.72;5037863;27;20085;-70
2022/03/03 01:04:42;;;;;;;11.57;10.38;;;;;;;0.63;64.23;101353.19;5015863;27;20050;-69
2022/03/03 01:07:08;;;;;;;11.23;9.82;;;;;;;0.61;64.57;101348.03;5006155;27;20017;-72
2022/03/03 01:09:33;;;;;;;11.93;10.45;;;;;;;0.59;64.13;101347.25;5016586;27;20029;-70
2022/03/03 01:11:58;;;;;;;12.40;10.70;;;;;;;0.64;64.75;101349.69;5016441;27;20009;-71
2022/03/03 01:14:25;;;;;;;12.48;10.27;;;;;;;0.49;65.77;101343.28;5013961;27;20021;-71
2022/03/03 01:16:51;;;;;;;12.13;10.18;;;;;;;0.54;66.03;101341.38;5036194;27;20388;-70
2022/03/03 01:19:17;;;;;;;11.93;10.02;;;;;;;0.47;66.20;101339.91;5034519;27;20105;-71
2022/03/03 01:21:42;;;;;;;13.32;10.77;;;;;;;0.58;66.34;101339.47;5004396;27;20013;-71
2022/03/03 01:24:07;;;;;;;12.88;10.23;;;;;;;0.60;66.48;101348.94;5033607;27;20098;-70
2022/03/03 01:26:33;;;;;;;12.65;10.90;;;;;;;0.48;66.12;101338.97;5034939;27;20009;-70
2022/03/03 01:28:58;;;;;;;12.70;11.10;;;;;;;0.48;66.17;101344.19;5031958;27;20952;-72
2022/03/03 01:31:23;;;;;;;11.07;9.98;;;;;;;0.42;66.08;101347.03;5032376;27;20005;-72
2022/03/03 01:33:49;;;;;;;12.20;9.80;;;;;;;0.37;66.19;101343.72;5007157;28;20177;-70
2022/03/03 01:36:14;;;;;;;16.42;10.35;;;;;;;0.38;66.37;101345.44;5031321;27;20052;-70
2022/03/03 01:38:39;;;;;;;14.20;10.45;;;;;;;0.27;67.11;101338.88;5032758;28;20005;-71
2022/03/03 01:41:05;;;;;;;11.40;10.20;;;;;;;0.22;67.22;101330.38;5028273;27;20021;-70
2022/03/03 01:43:30;;;;;;;13.02;10.60;;;;;;;0.21;67.60;101326.06;5045585;27;20026;-70
2022/03/03 01:45:56;;;;;;;12.73;10.60;;;;;;;0.24;67.47;101325.09;5054223;27;20013;-71
2022/03/03 01:48:21;;;;;;;13.07;11.00;;;;;;;0.28;67.17;101324.97;5036095;27;20028;-71
2022/03/03 01:50:46;;;;;;;12.30;10.80;;;;;;;0.22;67.08;101327.78;5030842;27;20028;-71
2022/03/03 01:53:12;;;;;;;12.05;10.57;;;;;;;0.43;66.31;101325.28;5024171;27;20027;-70
2022/03/03 01:55:37;;;;;;;11.60;9.77;;;;;;;0.26;67.03;101321.56;5015173;28;20536;-71
2022/03/03 01:58:03;;;;;;;12.80;10.73;;;;;;;0.11;67.35;101309.09;5023438;28;20229;-72
2022/03/03 02:00:28;;;;;;;12.88;10.70;;;;;;;0.11;67.98;101317.78;4995761;28;20936;-72
2022/03/03 02:02:54;;;;;;;13.20;10.57;;;;;;;0.06;67.72;101313.63;5017421;28;20024;-70
2022/03/03 02:05:19;;;;;;;12.57;9.75;;;;;;;-0.01;67.80;101319.03;5000320;27;20024;-70
2022/03/03 02:07:45;;;;;;;11.27;10.07;;;;;;;-0.02;67.60;101316.50;5008145;28;21018;-70
2022/03/03 02:10:10;;;;;;;11.73;10.32;;;;;;;-0.09;67.54;101313.25;5030240;27;20032;-70
2022/03/03 02:12:35;;;;;;;11.63;10.15;;;;;;;-0.10;67.40;101308.97;5035686;27;20013;-70
2022/03/03 02:15:01;;;;;;;12.68;10.35;;;;;;;-0.14;67.08;101312.59;5015920;28;20001;-69
2022/03/03 02:17:26;;;;;;;12.50;10.60;;;;;;;-0.11;66.56;101311.59;5004473;28;20041;-72
2022/03/03 02:19:52;;;;;;;13.10;10.82;;;;;;;-0.09;66.37;101315.03;5013287;28;20032;-71
2022/03/03 02:22:17;;;;;;;13.05;10.90;;;;;;;-0.11;66.23;101303.81;5026730;27;20017;-70
2022/03/03 02:24:43;;;;;;;12.20;10.60;;;;;;;-0.12;65.93;101300.38;5029710;27;20547;-70
2022/03/03 02:27:10;;;;;;;11.55;10.35;;;;;;;-0.12;65.97;101287.34;5033015;27;20787;-72
2022/03/03 02:29:35;;;;;;;11.10;9.90;;;;;;;-0.11;66.02;101291.66;5035685;27;20028;-72
2022/03/03 02:32:02;;;;;;;11.65;10.02;;;;;;;-0.12;66.19;101292.56;5033214;27;20015;-71
2022/03/03 02:34:27;;;;;;;13.35;9.88;;;;;;;-0.15;65.77;101294.44;4996926;27;20264;-71
2022/03/03 02:36:53;;;;;;;12.65;10.10;;;;;;;-0.21;66.12;101287.69;5013003;27;20033;-72
2022/03/03 02:39:18;;;;;;;12.07;10.18;;;;;;;-0.22;66.35;101288.59;5029819;27;20029;-72
2022/03/03 02:41:43;;;;;;;10.77;9.70;;;;;;;-0.25;66.66;101288.72;5015685;27;20019;-71
2022/03/03 02:44:09;;;;;;;12.73;10.10;;;;;;;-0.26;66.51;101293.03;5035415;27;20017;-71
2022/03/03 02:46:34;;;;;;;12.57;10.68;;;;;;;-0.29;65.91;101287.94;5013876;27;20396;-71
2022/03/03 02:49:00;;;;;;;13.45;10.18;;;;;;;-0.30;65.98;101280.22;5031258;27;20107;-71
2022/03/03 02:51:26;;;;;;;12.95;10.73;;;;;;;-0.31;65.83;101283.69;4990991;27;20028;-72
2022/03/03 02:53:51;;;;;;;13.40;10.50;;;;;;;-0.35;65.62;101268.22;5009829;27;20330;-72
2022/03/03 02:56:16;;;;;;;12.18;10.88;;;;;;;-0.33;65.83;101277.72;5018241;27;20058;-72
2022/03/03 02:58:42;;;;;;;11.20;10.00;;;;;;;-0.24;65.80;101275.66;5013781;28;20189;-72
2022/03/03 03:01:08;;;;;;;12.93;10.00;;;;;;;-0.21;65.96;101274.69;5033603;27;20025;-70
2022/03/03 03:03:33;;;;;;;11.38;10.00;;;;;;;-0.23;65.64;101277.31;4999791;28;20865;-70
2022/03/03 03:05:59;;;;;;;11.48;10.13;;;;;;;-0.25;66.29;101273.09;5013530;28;20078;-70
2022/03/03 03:08:24;;;;;;;12.45;10.13;;;;;;;-0.29;66.41;101277.56;5030653;28;20064;-70
2022/03/03 03:10:50;;;;;;;11.23;9.93;;;;;;;-0.35;67.09;101273.41;5034240;27;20905;-70
2022/03/03 03:13:15;;;;;;;13.95;10.18;;;;;;;-0.39;66.77;101276.19;5032401;27;20037;-69
2022/03/03 03:15:43;;;;;;;12.48;10.20;;;;;;;-0.39;66.85;101268.38;5013080;28;20024;-70
2022/03/03 03:18:12;;;;;;;16.35;10.52;;;;;;;-0.46;66.17;101270.34;5015043;28;20610;-70
2022/03/03 03:20:39;;;;;;;15.10;11.10;;;;;;;-0.47;66.30;101266.03;5008269;28;20009;-72
2022/03/03 03:23:04;;;;;;;15.60;10.48;;;;;;;-0.41;66.08;101271.03;5028832;28;20082;-71
2022/03/03 03:25:30;;;;;;;12.48;10.35;;;;;;;-0.44;65.63;101273.72;5031067;27;20580;-70
2022/03/03 03:27:55;;;;;;;12.02;10.70;;;;;;;-0.41;65.67;101267.56;4995470;28;20816;-72
2022/03/03 03:30:20;;;;;;;15.10;11.43;;;;;;;-0.47;65.74;101263.44;5028953;27;20971;-70
2022/03/03 03:32:46;;;;;;;14.77;11.00;;;;;;;-0.50;66.17;101254.91;5009307;28;20025;-70
2022/03/03 03:35:11;;;;;;;14.65;11.40;;;;;;;-0.48;66.18;101259.16;4997827;27;20009;-71
2022/03/03 03:37:37;;;;;;;14.88;10.25;;;;;;;-0.46;66.78;101256.50;4987650;28;20105;-70
2022/03/03 03:40:03;;;;;;;15.70;11.18;;;;;;;-0.50;67.13;101260.94;5014296;28;20730;-71
2022/03/03 03:42:28;;;;;;;13.25;11.23;;;;;;;-0.57;67.07;101259.47;5027400;27;20020;-71
2022/03/03 03:44:54;;;;;;;12.30;10.75;;;;;;;-0.59;67.53;101248.25;5028651;28;20025;-69
2022/03/03 03:47:20;;;;;;;12.93;11.13;;;;;;;-0.66;68.23;101257.16;5011483;28;20036;-70
2022/03/03 03:49:45;;;;;;;12.38;10.98;;;;;;;-0.68;68.72;101256.38;5031423;28;20090;-70
2022/03/03 03:52:10;;;;;;;11.73;10.52;;;;;;;-0.63;68.64;101251.88;5030088;27;20013;-70
2022/03/03 03:54:36;;;;;;;12.68;10.90;;;;;;;-0.66;68.60;101247.63;5021859;27;20017;-72
2022/03/03 03:57:01;;;;;;;13.38;10.82;;;;;;;-0.65;68.84;101251.06;4978566;27;20532;-70
2022/03/03 03:59:27;;;;;;;13.57;11.43;;;;;;;-0.72;68.97;101243.50;5011984;27;20031;-72
2022/03/03 04:01:52;;;;;;;12.32;10.95;;;;;;;-0.68;69.01;101245.97;5030591;27;20802;-71
2022/03/03 04:04:17;;;;;;;12.93;10.80;;;;;;;-0.66;69.02;101246.75;5032938;27;20434;-71
2022/03/03 04:06:43;;;;;;;13.85;10.93;;;;;;;-0.66;68.94;101241.56;5033164;27;20208;-71
2022/03/03 04:09:08;;;;;;;12.60;10.82;;;;;;;-0.72;69.18;101233.09;4996859;27;20347;-71
2022/03/03 04:11:33;;;;;;;16.65;11.10;;;;;;;-0.72;68.97;101240.91;5009651;27;20121;-71
2022/03/03 04:13:59;;;;;;;13.02;11.10;;;;;;;-0.72;68.88;101235.69;5029420;27;20157;-71
2022/03/03 04:16:24;;;;;;;15.00;11.30;;;;;;;-0.75;68.69;101229.75;5012126;27;20037;-71
2022/03/03 04:18:50;;;;;;;12.98;10.90;;;;;;;-0.78;69.14;101238.47;5032857;27;20985;-71
2022/03/03 04:21:15;;;;;;;12.43;10.75;;;;;;;-0.82;69.44;101220.47;5023414;27;20804;-70
2022/03/03 04:23:41;;;;;;;12.73;11.10;;;;;;;-0.82;69.16;101225.66;5012325;27;20881;-70
2022/03/03 04:26:06;;;;;;;13.18;11.00;;;;;;;-0.80;69.09;101234.25;5011441;27;20020;-70
2022/03/03 04:28:31;;;;;;;13.75;11.00;;;;;;;-0.83;69.02;101224.81;4999825;27;20025;-70
2022/03/03 04:30:57;;;;;;;14.05;11.27;;;;;;;-0.81;68.95;101228.19;5030968;27;20029;-70
2022/03/03 04:33:22;;;;;;;12.90;10.55;;;;;;;-0.86;69.12;101230.13;5015776;27;20952;-70
2022/03/03 04:35:47;;;;;;;12.63;10.52;;;;;;;-0.94;69.55;101222.56;5029264;27;20532;-71
2022/03/03 04:38:13;;;;;;;15.55;11.15;;;;;;;-0.88;69.29;101231.91;4994111;27;20036;-70
2022/03/03 04:40:38;;;;;;;13.10;10.70;;;;;;;-0.90;68.70;101231.13;4993347;27;20006;-70
2022/03/03 04:43:04;;;;;;;14.05;10.18;;;;;;;-0.89;68.73;101225.88;4997045;27;20021;-71
2022/03/03 04:45:29;;;;;;;11.65;10.43;;;;;;;-0.87;67.86;101225.81;5010728;27;21177;-71
2022/03/03 04:47:54;;;;;;;12.35;10.18;;;;;;;-0.92;67.79;101225.13;5029425;27;20013;-70
2022/03/03 04:50:20;;;;;;;11.77;10.57;;;;;;;-0.96;68.01;101226.97;5037298;27;20016;-70
2022/03/03 04:52:45;;;;;;;13.57;10.55;;;;;;;-0.92;67.74;101220.75;4976362;27;20581;-70
2022/03/03 04:55:11;;;;;;;13.32;10.73;;;;;;;-0.95;67.80;101209.63;4995149;27;20031;-71
2022/03/03 04:57:37;;;;;;;12.75;11.00;;;;;;;-0.90;67.38;101199.94;5001605;27;20114;-70
2022/03/03 05:00:04;;;;;;;13.02;10.32;;;;;;;-0.86;67.44;101206.75;5032423;27;20861;-71
2022/03/03 05:02:30;;;;;;;12.00;10.65;;;;;;;-0.82;67.73;101210.06;4983249;27;20689;-71
2022/03/03 05:04:55;;;;;;;14.07;11.23;;;;;;;-0.91;67.54;101206.03;4979793;27;20131;-70
2022/03/03 05:07:21;;;;;;;14.13;10.70;;;;;;;-0.97;67.09;101194.09;5007390;28;20017;-70
2022/03/03 05:09:46;;;;;;;15.63;10.90;;;;;;;-0.99;67.66;101189.84;5030428;27;21233;-70
2022/03/03 05:12:11;;;;;;;14.80;10.82;;;;;;;-1.08;67.54;101184.06;5029614;27;20484;-70
2022/03/03 05:14:37;;;;;;;14.10;10.80;;;;;;;-1.06;67.90;101182.28;4995376;27;20218;-72
2022/03/03 05:17:02;;;;;;;13.80;10.90;;;;;;;-1.01;68.64;101187.31;4995160;27;20088;-72
2022/03/03 05:19:28;;;;;;;13.75;11.20;;;;;;;-0.98;68.89;101188.97;4979318;27;20032;-72
2022/03/03 05:21:53;;;;;;;14.85;11.23;;;;;;;-0.88;68.88;101187.75;5028645;27;20230;-70
2022/03/03 05:24:19;;;;;;;13.55;10.75;;;;;;;-1.00;69.10;101186.41;5012783;27;20463;-70
2022/03/03 05:26:44;;;;;;;14.18;11.43;;;;;;;-1.05;69.44;101186.56;5013824;27;20380;-72
2022/03/03 05:29:10;;;;;;;13.95;11.32;;;;;;;-1.13;69.59;101185.97;4964802;28;20017;-72
2022/03/03 05:31:35;;;;;;;19.67;10.52;;;;;;;-1.11;69.49;101178.97;4960739;28;20018;-70
2022/03/03 05:34:03;;;;;;;13.40;11.35;;;;;;;-0.38;75.65;101182.53;4967504;28;20092;-68
2022/03/03 05:36:28;;;;;;;13.63;11.70;;;;;;;-0.67;69.28;101177.53;4997005;28;20543;-72
2022/03/03 05:38:55;;;;;;;13.77;11.02;;;;;;;-0.77;68.37;101185.63;4980018;28;20431;-72
2022/03/03 05:41:20;;;;;;;16.08;11.40;;;;;;;-0.85;69.02;101182.44;4999362;28;20028;-72
2022/03/03 05:43:46;;;;;;;15.38;10.95;;;;;;;-0.88;69.16;101180.78;4997499;28;20022;-70
2022/03/03 05:46:11;;;;;;;12.65;11.05;;;;;;;-0.96;69.63;101184.56;4976975;28;20332;-70
2022/03/03 05:48:37;;;;;;;13.40;11.10;;;;;;;-0.85;69.13;101181.59;4947002;28;20846;-69
2022/03/03 05:51:02;;;;;;;14.27;11.45;;;;;;;-1.07;69.98;101184.94;4969414;28;20740;-71
2022/03/03 05:53:27;;;;;;;13.40;10.90;;;;;;;-1.01;69.44;101179.53;4945944;28;20086;-70
2022/03/03 05:55:55;;;;;;;13.15;11.13;;;;;;;-1.01;69.74;101174.31;5001567;28;20788;-72
2022/03/03 05:58:21;;;;;;;14.27;11.27;;;;;;;-1.04;69.87;101175.28;5007576;28;20586;-72
2022/03/03 06:00:47;;;;;;;13.15;10.73;;;;;;;-1.15;70.21;101169.59;4987681;28;20133;-70
2022/03/03 06:03:17;;;;;;;14.45;11.38;;;;;;;-1.09;69.88;101176.31;5003929;28;20022;-70
2022/03/03 06:05:53;;;;;;;13.13;10.85;;;;;;;-1.12;69.43;101171.25;4982177;28;20230;-73
2022/03/03 06:08:35;;;;;;;12.75;11.38;;;;;;;-1.15;69.50;101174.78;4987542;28;20013;-71
2022/03/03 06:11:01;;;;;;;12.70;10.55;;;;;;;-1.06;69.38;101177.09;5008070;27;20037;-72
2022/03/03 06:13:30;;;;;;;14.38;11.30;;;;;;;-1.16;69.59;101167.88;4988677;28;20203;-69
2022/03/03 06:15:55;;;;;;;13.52;11.57;;;;;;;-1.19;70.07;101164.56;5041273;27;20014;-69
2022/03/03 06:18:28;;;;;;;14.93;11.20;;;;;;;-1.15;69.99;101177.38;5025179;28;20567;-70
2022/03/03 06:20:53;;;;;;;15.10;11.38;;;;;;;-1.10;69.45;101170.28;4987587;28;20010;-71
2022/03/03 06:23:19;;;;;;;13.35;11.38;;;;;;;-1.09;69.34;101169.38;4988139;27;20009;-70
2022/03/03 06:25:44;;;;;;;13.40;10.90;;;;;;;-1.14;69.65;101176.50;4975623;28;20029;-72
2022/03/03 06:28:10;;;;;;;14.02;11.70;;;;;;;-1.07;69.59;101169.34;5012146;27;20032;-70
2022/03/03 06:30:36;;;;;;;14.10;11.38;;;;;;;-1.06;69.83;101177.09;5029629;27;20475;-71
2022/03/03 06:33:03;;;;;;;12.43;11.00;;;;;;;-0.90;69.28;101190.41;5008608;27;21033;-71
2022/03/03 06:35:29;;;;;;;15.77;11.82;;;;;;;-0.78;69.15;101188.28;5030731;27;20178;-71
2022/03/03 06:37:54;;;;;;;14.35;11.73;;;;;;;-0.89;69.12;101196.44;5014593;27;20268;-70
2022/03/03 06:40:20;;;;;;;14.60;11.88;;;;;;;-0.92;69.36;101191.34;5031241;27;20047;-72
2022/03/03 06:42:45;;;;;;;16.63;11.85;;;;;;;-0.79;69.13;101189.16;5015160;27;20153;-70
2022/03/03 06:45:11;;;;;;;13.25;11.40;;;;;;;-0.62;68.63;101188.59;5010147;27;20098;-69
2022/03/03 06:47:37;;;;;;;17.15;11.60;;;;;;;-0.92;69.60;101192.19;5035566;27;20025;-70
2022/03/03 06:50:02;;;;;;;15.02;11.90;;;;;;;-1.03;70.32;101194.28;5052203;27;20270;-69
2022/03/03 06:52:28;;;;;;;15.85;12.07;;;;;;;-1.08;70.46;101194.44;5011820;27;20543;-70
2022/03/03 06:54:53;;;;;;;13.52;11.70;;;;;;;-0.87;69.95;101184.25;5013443;27;20125;-71
2022/03/03 06:57:22;;;;;;;17.13;12.63;;;;;;;-0.68;69.78;101187.03;4998639;27;20032;-70
2022/03/03 06:59:48;;;;;;;16.90;11.38;;;;;;;-0.44;69.02;101200.09;5030553;27;20302;-70
2022/03/03 07:02:14;;;;;;;14.07;11.32;;;;;;;-0.40;68.69;101197.31;5030565;27;20005;-70
2022/03/03 07:04:39;;;;;;;13.88;11.52;;;;;;;-0.45;69.47;101201.84;5031094;27;20020;-70
2022/03/03 07:07:04;;;;;;;15.75;12.43;;;;;;;-0.49;69.94;101200.25;4997898;28;20012;-70
2022/03/03 07:09:30;;;;;;;12.60;11.23;;;;;;;-0.23;68.84;101201.06;5028577;28;20093;-72
2022/03/03 07:11:55;;;;;;;15.25;11.23;;;;;;;-0.26;69.35;101194.22;5027217;27;20013;-71
2022/03/03 07:14:21;;;;;;;14.20;11.60;;;;;;;-0.14;69.46;101187.72;4993773;28;20552;-70
2022/03/03 07:17:04;;;;;;;14.20;11.88;;;;;;;-0.20;70.33;101191.41;4990207;28;20045;-70
2022/03/03 07:19:39;;;;;;;14.18;12.15;;;;;;;-0.10;70.16;101191.03;4961342;28;20022;-70
2022/03/03 07:22:38;;;;;;;15.50;12.07;;;;;;;0.02;69.53;101192.38;5027549;27;20025;-72
2022/03/03 07:25:06;;;;;;;20.33;12.40;;;;;;;0.17;68.95;101192.63;5031991;27;20900;-69
2022/03/03 07:27:32;;;;;;;15.18;11.95;;;;;;;0.37;68.65;101203.16;5021811;27;20813;-69
2022/03/03 07:30:04;;;;;;;15.60;11.48;;;;;;;0.66;68.30;101200.25;5030512;27;20116;-69
2022/03/03 07:32:53;;;;;;;16.60;11.90;;;;;;;0.78;67.75;101192.88;5013791;27;20021;-72
2022/03/03 07:35:20;;;;;;;13.82;11.93;;;;;;;0.81;67.77;101193.56;5015641;27;20020;-69
2022/03/03 07:37:57;;;;;;;15.00;11.85;;;;;;;1.09;66.95;101195.03;5031349;27;20041;-69
2022/03/03 07:40:22;;;;;;;17.67;11.82;;;;;;;1.22;67.14;101205.78;5028712;27;20016;-69
2022/03/03 07:42:47;;;;;;;14.30;11.75;;;;;;;1.35;66.48;101208.72;4996548;27;20024;-70
2022/03/03 07:45:13;;;;;;;17.63;11.82;;;;;;;1.37;66.88;101212.13;5031774;27;20755;-71
2022/03/03 07:47:39;;;;;;;14.20;11.18;;;;;;;1.40;66.40;101211.09;5029393;27;20504;-70
2022/03/03 07:50:05;;;;;;;14.43;10.55;;;;;;;1.51;66.80;101201.09;4995823;27;20019;-71
2022/03/03 07:52:30;;;;;;;16.30;11.48;;;;;;;1.60;66.16;101203.28;5014309;27;20018;-69
2022/03/03 07:54:56;;;;;;;14.30;11.85;;;;;;;1.82;64.56;101212.75;5018113;27;20148;-69
2022/03/03 07:57:22;;;;;;;14.80;12.10;;;;;;;2.05;63.15;101201.28;5023574;27;20156;-70
2022/03/03 07:59:48;;;;;;;14.73;12.65;;;;;;;2.18;62.55;101202.38;5015312;27;20009;-72
2022/03/03 08:02:22;;;;;;;17.00;11.63;;;;;;;2.44;61.14;101208.19;5001872;27;20032;-70
2022/03/03 08:04:49;;;;;;;17.08;12.32;;;;;;;2.63;59.72;101209.91;5039186;27;20020;-70
2022/03/03 08:07:15;;;;;;;15.80;12.38;;;;;;;2.86;57.78;101214.88;5013743;27;20823;-70
2022/03/03 08:09:40;;;;;;;20.30;12.45;;;;;;;3.01;59.35;101221.09;5001693;28;20032;-71
2022/03/03 08:12:07;;;;;;;15.50;11.48;;;;;;;3.07;60.26;101218.19;5019249;27;20021;-69
2022/03/03 08:14:33;;;;;;;17.80;11.70;;;;;;;3.17;60.12;101210.69;5020064;27;20025;-70
2022/03/03 08:16:58;;;;;;;13.60;11.27;;;;;;;3.28;59.82;101222.41;4999928;28;20122;-70
2022/03/03 08:19:24;;;;;;;14.85;10.80;;;;;;;3.47;58.22;101214.44;5020059;27;20403;-70
2022/03/03 08:21:50;;;;;;;11.77;10.55;;;;;;;3.57;56.65;101208.66;5021159;27;20027;-70
2022/03/03 08:24:15;;;;;;;13.07;10.52;;;;;;;3.82;55.92;101214.38;5023077;27;20182;-71
2022/03/03 08:26:42;;;;;;;11.93;10.18;;;;;;;4.03;53.26;101210.59;5001506;27;20009;-70
2022/03/03 08:29:08;;;;;;;11.63;10.23;;;;;;;4.26;51.82;101214.59;5012816;27;20037;-70
2022/03/03 08:31:41;;;;;;;14.95;10.45;;;;;;;4.48;50.03;101208.16;5016909;27;20283;-69
2022/03/03 08:34:25;;;;;;;11.57;9.82;;;;;;;4.67;51.20;101210.59;5016985;27;20036;-70
2022/03/03 08:36:54;;;;;;;11.32;9.85;;;;;;;4.92;49.50;101209.19;5019642;27;20037;-71
2022/03/03 08:39:21;;;;;;;12.23;10.30;;;;;;;5.12;48.30;101205.41;5022182;27;20521;-71
2022/03/03 08:41:46;;;;;;;11.25;9.48;;;;;;;5.34;48.24;101215.47;5035862;27;20517;-71
2022/03/03 08:44:12;;;;;;;11.68;9.95;;;;;;;5.58;46.82;101207.06;5000368;27;20878;-71
2022/03/03 08:46:41;;;;;;;10.93;9.77;;;;;;;5.77;46.41;101207.63;5002713;27;20380;-70
2022/03/03 08:49:08;;;;;;;13.43;10.50;;;;;;;5.92;45.23;101205.84;5003434;27;20026;-70
2022/03/03 08:51:34;;;;;;;13.95;10.38;;;;;;;6.17;44.76;101206.97;5011903;27;20033;-70
2022/03/03 08:53:59;;;;;;;12.30;10.57;;;;;;;6.48;44.17;101205.84;5005301;27;20851;-71
2022/03/03 08:56:25;;;;;;;11.90;9.98;;;;;;;6.83;43.59;101207.13;5026204;27;20255;-70
2022/03/03 08:58:51;;;;;;;12.02;10.73;;;;;;;7.11;41.73;101203.50;5039475;27;20009;-70
2022/03/03 09:01:16;;;;;;;11.93;10.27;;;;;;;7.38;41.60;101202.59;5006399;28;20087;-70
2022/03/03 09:03:43;;;;;;;12.93;10.60;;;;;;;7.56;40.79;101203.94;5043459;27;20090;-71
2022/03/03 09:06:12;;;;;;;12.10;10.73;;;;;;;8.14;40.71;101206.09;5063484;27;20005;-71
2022/03/03 09:08:37;;;;;;;11.65;10.40;;;;;;;8.65;39.16;101204.25;5023135;27;20132;-71
2022/03/03 09:11:03;;;;;;;11.73;10.45;;;;;;;8.88;37.58;101206.03;5040969;27;20078;-71
2022/03/03 09:13:28;;;;;;;11.23;10.00;;;;;;;8.66;37.96;101216.47;5040819;27;20376;-70
2022/03/03 09:15:53;;;;;;;11.60;10.10;;;;;;;8.82;36.90;101217.03;5042212;27;20183;-71
2022/03/03 09:18:19;;;;;;;11.43;10.15;;;;;;;9.28;36.77;101208.28;5022836;27;20122;-71
2022/03/03 09:20:44;;;;;;;13.45;10.02;;;;;;;9.85;35.60;101200.41;5055811;27;20033;-70
2022/03/03 09:23:09;;;;;;;12.95;10.90;;;;;;;9.91;34.23;101199.94;5060487;27;20009;-71
2022/03/03 09:25:36;;;;;;;15.23;10.90;;;;;;;10.13;34.20;101204.34;5037175;27;20009;-71
2022/03/03 09:28:06;;;;;;;12.60;10.45;;;;;;;10.29;34.93;101198.69;5034122;27;20452;-71
2022/03/03 09:30:31;;;;;;;11.95;10.25;;;;;;;10.61;34.67;101197.06;5031366;27;20036;-70
2022/03/03 09:32:56;;;;;;;14.15;11.05;;;;;;;10.94;34.38;101196.06;5029932;27;20016;-71
2022/03/03 09:35:22;;;;;;;14.18;10.07;;;;;;;11.69;33.19;101188.00;5012881;27;20170;-71
2022/03/03 09:37:47;;;;;;;12.25;10.35;;;;;;;12.09;33.01;101183.69;5003990;27;20041;-71
2022/03/03 09:40:13;;;;;;;11.55;10.30;;;;;;;12.11;32.39;101177.28;5011449;27;20025;-71
2022/03/03 09:42:38;;;;;;;12.35;10.52;;;;;;;12.12;31.97;101172.81;5009936;28;20029;-72
2022/03/03 09:45:05;;;;;;;11.10;9.93;;;;;;;12.27;31.77;101171.44;5025818;27;21028;-71
2022/03/03 09:47:35;;;;;;;10.50;9.50;;;;;;;12.67;32.29;101167.81;5013108;27;19998;-71
2022/03/03 09:50:01;;;;;;;11.90;10.02;;;;;;;13.13;30.57;101154.78;5015358;28;20687;-72
2022/03/03 09:52:26;;;;;;;13.73;10.73;;;;;;;13.22;30.28;101155.72;4990513;27;20352;-72
2022/03/03 09:54:54;;;;;;;11.25;10.15;;;;;;;13.63;29.17;101150.16;5015790;27;20021;-73
2022/03/03 09:57:20;;;;;;;11.45;10.35;;;;;;;14.05;28.26;101153.16;5017673;27;20037;-70
2022/03/03 09:59:48;;;;;;;12.10;10.68;;;;;;;14.11;28.56;101156.22;5043399;27;20021;-71
2022/03/03 10:02:14;;;;;;;11.45;10.35;;;;;;;14.65;27.36;101165.09;5041798;27;20403;-72
2022/03/03 10:04:39;;;;;;;11.70;10.55;;;;;;;14.49;26.77;101159.59;5037197;27;20021;-74
2022/03/03 10:07:09;;;;;;;12.15;10.40;;;;;;;14.11;27.70;101164.19;4994263;27;20988;-73
2022/03/03 10:09:59;;;;;;;12.73;10.43;;;;;;;14.63;27.08;101156.41;5034746;27;20457;-72
2022/03/03 10:12:24;;;;;;;12.50;10.80;;;;;;;14.60;26.36;101160.19;5010027;28;20010;-71
2022/03/03 10:14:49;;;;;;;12.20;10.43;;;;;;;14.81;26.05;101163.56;4998366;28;20024;-71
2022/03/03 10:17:14;;;;;;;11.52;10.40;;;;;;;14.98;26.42;101172.53;5000871;28;20529;-71
2022/03/03 10:19:56;;;;;;;17.13;10.73;;;;;;;15.03;27.76;101173.75;5014536;28;20902;-71
2022/03/03 10:22:59;;;;;;;14.15;10.57;;;;;;;15.92;26.07;101169.06;5019751;27;20089;-71
2022/03/03 10:25:32;;;;;;;11.38;10.38;;;;;;;15.02;24.22;101160.56;5034557;27;20094;-71
2022/03/03 10:28:08;;;;;;;13.40;10.82;;;;;;;15.73;24.99;101158.63;5013914;27;20021;-72
2022/03/03 10:30:49;;;;;;;11.00;10.00;;;;;;;16.05;25.63;101159.78;5029471;27;20021;-70
2022/03/03 10:33:15;;;;;;;11.80;10.60;;;;;;;16.45;23.83;101159.00;5026272;27;20037;-71
2022/03/03 10:35:41;;;;;;;11.60;10.40;;;;;;;15.91;24.55;101150.56;5032990;27;20198;-72
2022/03/03 10:38:06;;;;;;;13.38;10.55;;;;;;;16.78;24.19;101153.69;5006462;27;20888;-72
2022/03/03 10:40:32;;;;;;;12.27;10.30;;;;;;;17.10;24.06;101156.50;5028252;27;20047;-71
2022/03/03 10:42:57;;;;;;;12.82;11.52;;;;;;;17.68;24.04;101149.16;5033414;27;20164;-72
2022/03/03 10:45:22;;;;;;;14.05;10.77;;;;;;;18.02;23.49;101148.88;5053910;27;20274;-71
2022/03/03 10:47:59;;;;;;;11.95;10.85;;;;;;;18.96;21.35;101149.69;5052243;27;20119;-72
2022/03/03 10:50:24;;;;;;;11.43;10.32;;;;;;;18.45;22.08;101151.09;5048014;27;20025;-72
2022/03/03 10:52:50;;;;;;;12.32;10.55;;;;;;;18.12;22.88;101150.47;5029522;27;20188;-72
2022/03/03 10:55:17;;;;;;;11.48;10.38;;;;;;;18.86;21.61;101142.69;5028874;27;20100;-71
2022/03/03 10:57:56;;;;;;;11.05;10.00;;;;;;;19.84;19.85;101142.69;5004581;27;20033;-72
2022/03/03 11:00:27;;;;;;;13.48;10.57;;;;;;;19.52;21.01;101141.22;5030527;27;20024;-71
2022/03/03 11:02:58;;;;;;;11.43;10.40;;;;;;;20.20;19.36;101147.22;5034579;27;20421;-72
2022/03/03 11:05:24;;;;;;;10.32;9.43;;;;;;;20.17;18.98;101149.47;5016861;27;20065;-71
2022/03/03 11:07:50;;;;;;;10.95;9.50;;;;;;;20.84;18.09;101144.72;5037835;27;20001;-71
2022/03/03 11:10:17;;;;;;;9.75;8.93;;;;;;;20.53;18.24;101144.03;5002880;27;20081;-73
2022/03/03 11:12:45;;;;;;;10.85;9.85;;;;;;;20.43;18.13;101140.81;5001455;27;20017;-73